Time;durP1;ratioP1;P1;durP2;ratioP2;P2;SDS_P1;SDS_P2;PMS_P1;PMS_P2;Temp;Humidity;BMP_temperature;BMP_pressure;BME280_temperature;BME280_humidity;BME280_pressure;Samples;Min_cycle;Max_cycle;Signal;HPM_P1;HPM_P2
2021/10/15 00:01:06;;;;;;;16.40;10.17;;;13.10;99.90;;;;;;5060976;28;20226;-82
2021/10/15 00:03:32;;;;;;;22.10;11.13;;;13.00;99.90;;;;;;5058674;28;20260;-83
2021/10/15 00:05:57;;;;;;;19.63;10.00;;;13.10;99.90;;;;;;5058232;28;20207;-82
2021/10/15 00:08:25;;;;;;;17.97;10.67;;;13.00;99.90;;;;;;5057355;28;20177;-83
2021/10/15 00:10:51;;;;;;;18.15;9.02;;;13.10;99.90;;;;;;5059212;28;20243;-82
2021/10/15 00:13:17;;;;;;;20.97;9.80;;;13.10;99.90;;;;;;5059253;28;20181;-82
2021/10/15 00:15:42;;;;;;;18.07;9.13;;;13.00;99.90;;;;;;5059732;28;20225;-83
2021/10/15 00:18:08;;;;;;;15.27;8.80;;;13.00;99.90;;;;;;5063588;28;20175;-83
2021/10/15 00:20:33;;;;;;;14.83;8.87;;;13.10;99.90;;;;;;5045925;28;20172;-83
2021/10/15 00:22:59;;;;;;;18.40;8.20;;;13.10;99.90;;;;;;5045860;28;20187;-83
2021/10/15 00:25:24;;;;;;;12.83;7.93;;;13.20;99.90;;;;;;5062735;28;20188;-83
2021/10/15 00:27:50;;;;;;;13.97;8.17;;;13.20;99.90;;;;;;5062466;28;20196;-83
2021/10/15 00:30:15;;;;;;;16.90;8.37;;;13.20;99.90;;;;;;5060724;28;20203;-83
2021/10/15 00:32:41;;;;;;;13.97;7.90;;;13.20;99.90;;;;;;5043504;28;20173;-83
2021/10/15 00:35:07;;;;;;;12.40;8.10;;;13.20;99.90;;;;;;5063380;28;20184;-82
2021/10/15 00:37:32;;;;;;;17.57;8.77;;;13.30;99.90;;;;;;5063542;28;20191;-82
2021/10/15 00:39:58;;;;;;;16.80;9.30;;;13.30;99.90;;;;;;5061755;28;20821;-82
2021/10/15 00:42:24;;;;;;;11.77;7.50;;;13.20;99.90;;;;;;5060513;28;20202;-83
2021/10/15 00:44:49;;;;;;;17.47;7.80;;;13.20;99.90;;;;;;5060670;28;20192;-83
2021/10/15 00:47:15;;;;;;;11.40;6.57;;;13.20;99.90;;;;;;5061486;28;20341;-83
2021/10/15 00:49:40;;;;;;;11.53;7.77;;;13.30;99.90;;;;;;5065254;28;20188;-83
2021/10/15 00:52:08;;;;;;;13.97;7.43;;;13.20;99.90;;;;;;5063811;28;20175;-84
2021/10/15 00:54:36;;;;;;;12.07;7.05;;;13.20;99.90;;;;;;5062040;28;20169;-83
2021/10/15 00:57:02;;;;;;;12.40;7.07;;;13.20;99.90;;;;;;5061300;28;20196;-82
2021/10/15 00:59:28;;;;;;;15.30;7.73;;;13.20;99.90;;;;;;5059711;28;20172;-83
2021/10/15 01:01:53;;;;;;;13.10;8.03;;;13.10;99.90;;;;;;5059481;28;20441;-82
2021/10/15 01:04:19;;;;;;;11.23;7.07;;;13.20;99.90;;;;;;5058763;28;20169;-82
2021/10/15 01:06:46;;;;;;;11.90;7.20;;;13.20;99.90;;;;;;5064394;28;20197;-83
2021/10/15 01:09:11;;;;;;;12.00;7.25;;;13.10;99.90;;;;;;5065280;28;20200;-83
2021/10/15 01:11:37;;;;;;;12.50;7.67;;;13.10;99.90;;;;;;5064770;28;20314;-83
2021/10/15 01:14:03;;;;;;;13.47;7.40;;;13.10;99.90;;;;;;5063855;28;20177;-84
2021/10/15 01:16:33;;;;;;;13.27;7.30;;;13.00;99.90;;;;;;5063600;28;20208;-83
2021/10/15 01:19:00;;;;;;;17.27;7.40;;;12.90;99.90;;;;;;5063829;28;20186;-82
2021/10/15 01:21:27;;;;;;;10.68;6.00;;;12.90;99.90;;;;;;5065383;28;20168;-83
2021/10/15 01:23:53;;;;;;;14.13;7.65;;;13.00;99.90;;;;;;5065507;28;20336;-81
2021/10/15 01:26:19;;;;;;;13.70;7.70;;;12.90;99.90;;;;;;5065246;28;20196;-82
2021/10/15 01:28:45;;;;;;;15.45;8.48;;;12.90;99.90;;;;;;5046242;28;20556;-83
2021/10/15 01:31:10;;;;;;;10.60;7.30;;;12.90;99.90;;;;;;5062303;28;20735;-81
2021/10/15 01:33:36;;;;;;;11.53;7.23;;;13.00;99.90;;;;;;5063868;28;20641;-81
2021/10/15 01:36:02;;;;;;;11.77;7.67;;;13.10;99.90;;;;;;5063677;28;20191;-82
2021/10/15 01:38:28;;;;;;;12.50;8.23;;;13.00;99.90;;;;;;5045467;28;20180;-82
2021/10/15 01:40:57;;;;;;;11.37;6.83;;;13.00;99.90;;;;;;5061641;28;20640;-82
2021/10/15 01:43:30;;;;;;;11.35;7.18;;;13.10;99.90;;;;;;5061062;28;20406;-83
2021/10/15 01:45:56;;;;;;;11.23;7.00;;;13.10;99.90;;;;;;5043959;28;20287;-83
2021/10/15 01:48:23;;;;;;;10.80;6.55;;;13.10;99.90;;;;;;5060648;28;20187;-82
2021/10/15 01:50:49;;;;;;;10.57;7.32;;;13.10;99.90;;;;;;5061521;28;20668;-82
2021/10/15 01:53:15;;;;;;;10.13;7.10;;;13.10;99.90;;;;;;5059695;28;20172;-82
2021/10/15 01:55:40;;;;;;;10.30;6.60;;;13.20;99.90;;;;;;5059496;28;20491;-82
2021/10/15 01:58:06;;;;;;;14.23;7.77;;;13.10;99.90;;;;;;5059284;28;20399;-82
2021/10/15 02:00:32;;;;;;;13.33;7.90;;;13.10;99.90;;;;;;5042734;28;20556;-82
2021/10/15 02:02:57;;;;;;;12.40;7.07;;;13.10;99.90;;;;;;5058202;28;20658;-83
2021/10/15 02:05:23;;;;;;;8.67;6.33;;;13.10;99.90;;;;;;5061376;28;20445;-82
2021/10/15 02:07:49;;;;;;;12.30;7.00;;;13.10;99.90;;;;;;5042788;28;20212;-82
2021/10/15 02:10:16;;;;;;;10.70;6.13;;;13.20;99.90;;;;;;5059946;28;20782;-82
2021/10/15 02:12:42;;;;;;;10.63;6.50;;;13.10;99.90;;;;;;5042159;28;20280;-81
2021/10/15 02:15:09;;;;;;;14.48;7.85;;;13.10;99.90;;;;;;5058190;28;20184;-81
2021/10/15 02:17:36;;;;;;;10.98;6.90;;;13.20;99.90;;;;;;5039921;28;20216;-81
2021/10/15 02:20:07;;;;;;;12.38;7.30;;;13.20;99.90;;;;;;5058909;28;20176;-82
2021/10/15 02:22:33;;;;;;;11.23;6.10;;;13.30;99.90;;;;;;5057210;28;20268;-83
2021/10/15 02:24:59;;;;;;;11.48;6.78;;;13.20;99.90;;;;;;5058317;28;20223;-81
2021/10/15 02:27:26;;;;;;;10.95;7.03;;;13.10;99.90;;;;;;5056123;28;20227;-80
2021/10/15 02:29:51;;;;;;;10.15;6.55;;;13.20;99.90;;;;;;5054627;28;20230;-82
2021/10/15 02:32:17;;;;;;;11.80;6.13;;;13.20;99.90;;;;;;5057899;28;20176;-82
2021/10/15 02:34:42;;;;;;;10.50;6.80;;;13.20;99.90;;;;;;5061549;28;20715;-81
2021/10/15 02:37:08;;;;;;;11.57;7.00;;;13.20;99.90;;;;;;5043184;28;20192;-82
2021/10/15 02:39:34;;;;;;;11.07;6.70;;;13.20;99.90;;;;;;5060193;28;20297;-81
2021/10/15 02:41:59;;;;;;;10.27;6.53;;;13.20;99.90;;;;;;5062278;28;20182;-82
2021/10/15 02:44:25;;;;;;;7.53;5.80;;;13.10;99.90;;;;;;5044634;28;20207;-83
2021/10/15 02:46:50;;;;;;;8.77;6.50;;;13.10;99.90;;;;;;5044586;28;20287;-82
2021/10/15 02:49:16;;;;;;;13.50;6.67;;;13.10;99.90;;;;;;5060437;28;20200;-82
2021/10/15 02:51:41;;;;;;;11.83;6.67;;;13.10;99.90;;;;;;5061476;28;20251;-82
2021/10/15 02:54:07;;;;;;;11.47;6.87;;;13.10;99.90;;;;;;5043166;28;20184;-83
2021/10/15 02:56:33;;;;;;;7.60;5.73;;;13.20;99.90;;;;;;5062718;28;20200;-82
2021/10/15 02:58:58;;;;;;;12.43;6.27;;;13.20;99.90;;;;;;5062338;28;20247;-82
2021/10/15 03:01:24;;;;;;;9.80;6.20;;;13.20;99.90;;;;;;5045550;28;20706;-81
2021/10/15 03:03:50;;;;;;;10.43;6.82;;;13.20;99.90;;;;;;5063307;28;20180;-82
2021/10/15 03:06:16;;;;;;;7.80;5.20;;;13.20;99.90;;;;;;5065408;28;20196;-81
2021/10/15 03:08:43;;;;;;;10.13;6.10;;;13.10;99.90;;;;;;5066384;28;20471;-82
2021/10/15 03:11:08;;;;;;;10.30;5.63;;;13.10;99.90;;;;;;5066439;28;20219;-82
2021/10/15 03:13:34;;;;;;;9.57;6.40;;;13.10;99.90;;;;;;5064849;28;20240;-82
2021/10/15 03:16:00;;;;;;;7.37;5.70;;;13.10;99.90;;;;;;5066044;28;20191;-81
2021/10/15 03:18:25;;;;;;;8.50;6.03;;;13.10;99.90;;;;;;5067061;28;20403;-81
2021/10/15 03:20:51;;;;;;;7.47;5.10;;;13.20;99.90;;;;;;5066036;28;20183;-82
2021/10/15 03:23:16;;;;;;;7.80;5.43;;;13.20;99.90;;;;;;5067551;28;20176;-81
2021/10/15 03:25:42;;;;;;;7.50;6.00;;;13.20;99.90;;;;;;5068507;28;20180;-82
2021/10/15 03:28:08;;;;;;;9.07;6.63;;;13.20;99.90;;;;;;5068940;28;20176;-83
2021/10/15 03:30:33;;;;;;;9.13;6.17;;;13.10;99.90;;;;;;5051570;28;20287;-82
2021/10/15 03:32:59;;;;;;;9.40;5.73;;;13.10;99.90;;;;;;5066134;28;20208;-83
2021/10/15 03:35:25;;;;;;;11.60;4.93;;;13.10;99.90;;;;;;5065575;28;20222;-83
2021/10/15 03:37:53;;;;;;;8.00;5.50;;;13.10;99.90;;;;;;5064321;28;20203;-83
2021/10/15 03:40:18;;;;;;;8.40;5.32;;;13.10;99.90;;;;;;5065724;28;20240;-82
2021/10/15 03:42:44;;;;;;;8.23;5.73;;;13.10;99.90;;;;;;5047090;28;20253;-83
2021/10/15 03:45:10;;;;;;;9.20;5.73;;;13.10;99.90;;;;;;5063859;28;20267;-83
2021/10/15 03:47:36;;;;;;;11.30;6.23;;;13.10;99.90;;;;;;5064515;28;20208;-82
2021/10/15 03:50:04;;;;;;;12.38;5.47;;;13.10;99.90;;;;;;5064973;28;20201;-82
2021/10/15 03:52:29;;;;;;;7.32;5.70;;;13.10;99.90;;;;;;5063385;28;20175;-82
2021/10/15 03:54:55;;;;;;;9.07;4.97;;;13.10;99.90;;;;;;5046903;28;20181;-82
2021/10/15 03:57:21;;;;;;;9.13;6.20;;;13.00;99.90;;;;;;5063952;28;20722;-81
2021/10/15 03:59:46;;;;;;;9.37;5.80;;;13.00;99.90;;;;;;5063195;28;20424;-83
2021/10/15 04:02:12;;;;;;;7.50;5.33;;;12.90;99.90;;;;;;5064465;28;20176;-82
2021/10/15 04:04:37;;;;;;;8.43;6.07;;;13.00;99.90;;;;;;5064198;28;20181;-80
2021/10/15 04:07:03;;;;;;;11.50;5.00;;;13.00;99.90;;;;;;5062072;28;20212;-82
2021/10/15 04:09:29;;;;;;;8.63;5.63;;;13.00;99.90;;;;;;5064194;28;20238;-82
2021/10/15 04:11:55;;;;;;;10.67;6.00;;;13.00;99.90;;;;;;5062751;28;20188;-82
2021/10/15 04:14:22;;;;;;;8.65;5.40;;;13.00;99.90;;;;;;5065348;28;20169;-83
2021/10/15 04:16:47;;;;;;;7.38;5.40;;;12.90;99.90;;;;;;5065740;28;20185;-85
2021/10/15 04:19:13;;;;;;;13.47;7.90;;;12.90;99.90;;;;;;5065101;28;20173;-84
2021/10/15 04:21:38;;;;;;;8.40;6.17;;;12.90;99.90;;;;;;5063586;28;20188;-81
2021/10/15 04:24:04;;;;;;;8.90;6.40;;;12.90;99.90;;;;;;5064776;28;20196;-83
2021/10/15 04:26:29;;;;;;;7.83;6.20;;;13.00;99.90;;;;;;5049572;28;20196;-83
2021/10/15 04:28:55;;;;;;;9.90;6.27;;;13.10;99.90;;;;;;5067205;28;20180;-83
2021/10/15 04:31:21;;;;;;;16.23;5.90;;;13.10;99.90;;;;;;5064998;28;20178;-82
2021/10/15 04:33:46;;;;;;;18.83;6.57;;;13.10;99.90;;;;;;5064179;28;20193;-81
2021/10/15 04:36:12;;;;;;;7.87;5.13;;;13.10;99.90;;;;;;5049972;28;20247;-82
2021/10/15 04:38:37;;;;;;;8.60;5.53;;;13.10;99.90;;;;;;5051154;28;20185;-83
2021/10/15 04:41:03;;;;;;;9.50;6.03;;;13.00;99.90;;;;;;5066687;28;20236;-80
2021/10/15 04:43:31;;;;;;;8.60;6.60;;;13.00;99.90;;;;;;5063331;28;20260;-81
2021/10/15 04:45:57;;;;;;;9.85;6.38;;;13.10;99.90;;;;;;5065115;28;20200;-81
2021/10/15 04:48:26;;;;;;;9.10;5.40;;;13.10;99.90;;;;;;5065596;28;20176;-81
2021/10/15 04:50:51;;;;;;;9.23;5.55;;;13.10;99.90;;;;;;5064515;28;20201;-81
2021/10/15 04:53:17;;;;;;;8.13;5.60;;;13.10;99.90;;;;;;5064509;28;20209;-80
2021/10/15 04:55:42;;;;;;;8.23;5.63;;;13.10;99.90;;;;;;5062010;28;20628;-81
2021/10/15 04:58:08;;;;;;;7.77;5.63;;;13.20;99.90;;;;;;5065856;28;20164;-81
2021/10/15 05:00:34;;;;;;;8.77;5.40;;;13.20;99.90;;;;;;5045247;28;20190;-81
2021/10/15 05:03:03;;;;;;;9.90;6.30;;;13.20;99.90;;;;;;5061057;28;20191;-81
2021/10/15 05:05:29;;;;;;;8.40;5.10;;;13.10;99.90;;;;;;5060060;28;20430;-82
2021/10/15 05:07:58;;;;;;;7.88;5.55;;;13.10;99.90;;;;;;5043413;28;20175;-81
2021/10/15 05:10:25;;;;;;;12.85;6.95;;;13.10;99.90;;;;;;5058482;28;20200;-81
2021/10/15 05:12:52;;;;;;;8.88;5.10;;;13.10;99.90;;;;;;5056634;28;20232;-81
2021/10/15 05:15:18;;;;;;;10.18;5.68;;;13.10;99.90;;;;;;5054718;28;20215;-80
2021/10/15 05:17:44;;;;;;;7.72;4.57;;;13.10;99.90;;;;;;5054784;28;20564;-80
2021/10/15 05:20:15;;;;;;;9.13;5.90;;;13.10;99.90;;;;;;5055265;28;20176;-80
2021/10/15 05:22:41;;;;;;;7.55;4.70;;;13.10;99.90;;;;;;5056742;28;20411;-79
2021/10/15 05:25:08;;;;;;;6.93;4.65;;;13.10;99.90;;;;;;5055582;28;20177;-81
2021/10/15 05:27:34;;;;;;;8.52;4.60;;;13.10;99.90;;;;;;5071426;28;20200;-81
2021/10/15 05:30:00;;;;;;;9.15;4.85;;;13.20;99.90;;;;;;5056032;28;20667;-80
2021/10/15 05:32:25;;;;;;;7.70;5.40;;;13.20;99.90;;;;;;5055473;28;20185;-80
2021/10/15 05:34:51;;;;;;;7.17;4.33;;;13.20;99.90;;;;;;5053814;28;20180;-80
2021/10/15 05:37:17;;;;;;;14.35;5.00;;;13.20;99.90;;;;;;5054125;28;20272;-80
2021/10/15 05:39:43;;;;;;;7.43;5.20;;;13.20;99.90;;;;;;5055372;28;20643;-80
2021/10/15 05:42:09;;;;;;;10.73;4.55;;;13.20;99.90;;;;;;5054321;28;20217;-80
2021/10/15 05:44:34;;;;;;;8.30;5.07;;;13.20;99.90;;;;;;5055265;28;20232;-82
2021/10/15 05:47:04;;;;;;;7.50;4.67;;;13.30;99.90;;;;;;5054884;28;20313;-80
2021/10/15 05:49:31;;;;;;;11.88;5.50;;;13.20;99.90;;;;;;5055086;28;20185;-80
2021/10/15 05:52:04;;;;;;;36.90;19.48;;;13.20;99.90;;;;;;5037407;28;20187;-82
2021/10/15 05:54:39;;;;;;;116.30;50.53;;;13.30;99.90;;;;;;5039464;28;20184;-81
2021/10/15 05:59:39;;;;;;;7.95;5.68;;;13.30;99.90;;;;;;5055409;28;20252;-82
2021/10/15 06:02:08;;;;;;;7.03;5.10;;;13.40;99.90;;;;;;5054783;28;20208;-82
2021/10/15 06:15:34;;;;;;;7.18;5.18;;;13.50;99.90;;;;;;5052589;28;20168;-82
2021/10/15 06:18:10;;;;;;;8.15;4.78;;;13.50;99.90;;;;;;5062174;28;20177;-81
2021/10/15 06:20:36;;;;;;;9.02;5.35;;;13.50;99.90;;;;;;5053846;28;20180;-81
2021/10/15 06:23:02;;;;;;;9.00;5.72;;;13.40;99.90;;;;;;5053885;28;20169;-82
2021/10/15 06:25:28;;;;;;;9.50;5.47;;;13.40;99.90;;;;;;5052783;28;20218;-81
2021/10/15 06:27:58;;;;;;;10.07;5.40;;;13.50;99.90;;;;;;5054851;28;20176;-81
2021/10/15 06:30:24;;;;;;;12.60;6.43;;;13.50;99.90;;;;;;5055125;28;20737;-80
2021/10/15 06:32:49;;;;;;;8.67;5.33;;;13.50;99.90;;;;;;5056260;28;20176;-81
2021/10/15 06:35:15;;;;;;;7.80;4.73;;;13.50;99.90;;;;;;5038856;28;20188;-81
2021/10/15 06:37:40;;;;;;;4.90;4.13;;;13.50;99.90;;;;;;5055599;28;20181;-85
2021/10/15 06:40:07;;;;;;;6.30;4.77;;;13.60;99.90;;;;;;5055153;28;20185;-82
2021/10/15 06:42:33;;;;;;;7.43;4.80;;;13.60;99.90;;;;;;5038036;28;20184;-82
2021/10/15 06:45:01;;;;;;;7.18;4.35;;;13.50;99.90;;;;;;5054397;28;20181;-81
2021/10/15 06:47:28;;;;;;;6.32;4.70;;;13.60;99.90;;;;;;5053683;28;20304;-81
2021/10/15 06:49:54;;;;;;;7.82;4.05;;;13.60;99.90;;;;;;5054629;28;20275;-82
2021/10/15 06:52:20;;;;;;;5.80;4.10;;;13.60;99.90;;;;;;5038556;28;20174;-81
2021/10/15 06:54:45;;;;;;;438.67;198.93;;;13.60;99.90;;;;;;5055822;28;20454;-83
2021/10/15 06:57:11;;;;;;;53.97;26.87;;;13.60;99.90;;;;;;5037106;28;20193;-81
2021/10/15 06:59:36;;;;;;;8.83;6.40;;;13.60;99.90;;;;;;5037274;28;20203;-82
2021/10/15 07:02:02;;;;;;;12.07;6.20;;;13.70;99.90;;;;;;5053440;28;20222;-81
2021/10/15 07:04:27;;;;;;;7.67;4.77;;;13.70;99.90;;;;;;5036358;28;20625;-80
2021/10/15 07:06:53;;;;;;;7.30;4.83;;;13.70;99.90;;;;;;5054312;28;20204;-81
2021/10/15 07:09:18;;;;;;;9.60;4.40;;;13.60;99.90;;;;;;5039148;28;20173;-82
2021/10/15 07:11:46;;;;;;;7.83;4.77;;;13.60;99.90;;;;;;5059262;28;20176;-82
2021/10/15 07:14:11;;;;;;;6.43;4.50;;;13.70;99.90;;;;;;5053855;28;20188;-81
2021/10/15 07:16:37;;;;;;;6.40;4.40;;;13.60;99.90;;;;;;5054586;28;20188;-82
2021/10/15 07:19:02;;;;;;;4.60;3.67;;;13.70;99.90;;;;;;5057046;28;20192;-83
2021/10/15 07:21:28;;;;;;;9.40;5.00;;;13.70;99.90;;;;;;5059368;28;20723;-82
2021/10/15 07:23:54;;;;;;;6.17;3.47;;;13.70;99.90;;;;;;5057701;28;20544;-81
2021/10/15 07:26:20;;;;;;;8.30;3.77;;;13.60;99.90;;;;;;5065669;28;20194;-82
2021/10/15 07:28:45;;;;;;;4.65;3.90;;;13.60;99.90;;;;;;5059488;28;20426;-82
2021/10/15 07:31:11;;;;;;;7.70;4.13;;;13.60;99.90;;;;;;5042114;28;20676;-82
2021/10/15 07:33:37;;;;;;;5.93;3.90;;;13.70;99.90;;;;;;5058009;28;20528;-82
2021/10/15 07:36:02;;;;;;;7.33;3.80;;;13.70;99.90;;;;;;5057840;28;20239;-83
2021/10/15 07:38:28;;;;;;;5.70;4.10;;;13.70;99.90;;;;;;5058052;28;20199;-81
2021/10/15 07:40:53;;;;;;;6.40;3.67;;;13.70;99.90;;;;;;5058576;28;20177;-81
2021/10/15 07:43:19;;;;;;;6.43;3.60;;;13.70;99.90;;;;;;5044191;28;20173;-82
2021/10/15 07:45:44;;;;;;;4.83;2.97;;;13.80;99.90;;;;;;5059298;28;20522;-82
2021/10/15 07:48:10;;;;;;;5.43;3.43;;;13.80;99.90;;;;;;5057861;28;20555;-81
2021/10/15 07:51:13;;;;;;;9.10;3.37;;;13.80;99.90;;;;;;5041732;28;20577;-82
2021/10/15 07:53:38;;;;;;;4.55;3.80;;;13.90;99.90;;;;;;5059990;28;20238;-83
2021/10/15 07:56:18;;;;;;;4.90;3.10;;;13.90;99.90;;;;;;5042521;28;20200;-83
2021/10/15 07:58:45;;;;;;;5.82;2.70;;;13.90;99.90;;;;;;5059191;28;20274;-82
2021/10/15 08:01:11;;;;;;;3.92;3.08;;;13.90;99.90;;;;;;5061814;28;20169;-80
2021/10/15 08:03:36;;;;;;;4.60;3.07;;;13.90;99.90;;;;;;5060572;28;20266;-83
2021/10/15 08:06:04;;;;;;;5.20;2.73;;;13.80;99.90;;;;;;5058456;28;20203;-85
2021/10/15 08:08:30;;;;;;;3.15;2.42;;;13.80;99.90;;;;;;5057690;28;20537;-85
2021/10/15 08:10:55;;;;;;;6.20;3.30;;;13.90;99.90;;;;;;5056281;28;20288;-84
2021/10/15 08:13:31;;;;;;;5.80;3.90;;;13.90;99.90;;;;;;5058556;28;20529;-83
2021/10/15 08:16:06;;;;;;;4.78;3.22;;;13.90;99.90;;;;;;5057764;28;20282;-83
2021/10/15 08:18:32;;;;;;;5.20;2.72;;;13.80;99.90;;;;;;5040983;28;20180;-83
2021/10/15 08:20:58;;;;;;;5.03;3.27;;;13.80;99.90;;;;;;5039051;28;20221;-83
2021/10/15 08:23:34;;;;;;;5.70;3.27;;;13.80;99.90;;;;;;5057117;28;20181;-83
2021/10/15 08:25:59;;;;;;;5.80;3.25;;;13.80;99.90;;;;;;5058651;28;20223;-84
2021/10/15 08:28:26;;;;;;;3.90;3.30;;;13.80;99.90;;;;;;5060150;28;20180;-83
2021/10/15 08:30:53;;;;;;;3.25;2.40;;;13.90;99.90;;;;;;5060360;28;20200;-83
2021/10/15 08:33:19;;;;;;;3.50;2.85;;;13.90;99.90;;;;;;5061317;28;20200;-82
2021/10/15 08:35:45;;;;;;;5.18;2.90;;;13.90;99.90;;;;;;5059232;28;20173;-83
2021/10/15 08:38:11;;;;;;;3.15;2.85;;;13.90;99.90;;;;;;5060324;28;20176;-84
2021/10/15 08:40:36;;;;;;;4.30;2.80;;;13.90;99.90;;;;;;5059909;28;20184;-84
2021/10/15 08:43:02;;;;;;;3.63;2.57;;;13.90;99.90;;;;;;5041581;28;20261;-83
2021/10/15 08:45:34;;;;;;;3.03;2.63;;;13.90;99.90;;;;;;5058693;28;20180;-84
2021/10/15 08:48:00;;;;;;;3.90;2.80;;;13.90;99.90;;;;;;5041583;28;20440;-84
2021/10/15 08:50:26;;;;;;;6.28;2.67;;;13.90;99.90;;;;;;5041880;28;20254;-83
2021/10/15 08:52:52;;;;;;;3.57;2.60;;;13.90;99.90;;;;;;5058940;28;20174;-83
2021/10/15 08:55:19;;;;;;;3.13;2.80;;;14.00;99.90;;;;;;5042686;28;20288;-84
2021/10/15 08:57:49;;;;;;;4.45;2.92;;;14.00;99.90;;;;;;5057982;28;20284;-83
2021/10/15 09:00:27;;;;;;;3.13;2.83;;;14.00;99.90;;;;;;5059803;28;20204;-83
2021/10/15 09:03:09;;;;;;;7.30;3.60;;;14.10;99.90;;;;;;5060941;28;20172;-83
2021/10/15 09:05:34;;;;;;;4.15;3.00;;;14.10;99.90;;;;;;5057395;28;20533;-84
2021/10/15 09:08:01;;;;;;;4.77;3.93;;;14.20;99.90;;;;;;5057638;28;20174;-84
2021/10/15 09:10:32;;;;;;;5.03;3.00;;;14.10;99.90;;;;;;5058368;28;20201;-84
2021/10/15 09:13:09;;;;;;;6.00;2.67;;;14.10;99.90;;;;;;5061148;28;20176;-84
2021/10/15 09:15:36;;;;;;;6.43;2.67;;;14.00;99.90;;;;;;5058385;28;20174;-83
2021/10/15 09:18:28;;;;;;;3.60;2.95;;;14.00;99.90;;;;;;5060651;28;20518;-83
2021/10/15 09:20:54;;;;;;;3.05;2.33;;;14.00;99.90;;;;;;5059619;28;20173;-83
2021/10/15 09:23:47;;;;;;;3.30;2.37;;;14.00;99.90;;;;;;5058512;28;20191;-82
2021/10/15 09:26:13;;;;;;;6.28;3.60;;;14.00;99.90;;;;;;5040707;28;20268;-82
2021/10/15 09:28:45;;;;;;;2.87;2.27;;;14.10;99.90;;;;;;5057059;28;20200;-83
2021/10/15 09:31:12;;;;;;;3.78;1.90;;;14.20;99.90;;;;;;5058387;28;20459;-83
2021/10/15 09:33:51;;;;;;;3.28;1.90;;;14.20;99.90;;;;;;5045088;28;20550;-83
2021/10/15 09:36:19;;;;;;;2.42;2.22;;;14.30;99.90;;;;;;5073600;28;20246;-84
2021/10/15 09:38:45;;;;;;;3.58;2.20;;;14.40;99.90;;;;;;5055883;28;20595;-83
2021/10/15 09:41:34;;;;;;;3.83;2.47;;;14.50;99.90;;;;;;5055630;28;20209;-83
2021/10/15 09:43:59;;;;;;;4.03;2.70;;;14.60;99.90;;;;;;5055289;28;20181;-84
2021/10/15 09:46:25;;;;;;;3.70;2.17;;;14.60;99.90;;;;;;5039103;28;20460;-83
2021/10/15 09:48:54;;;;;;;3.20;2.50;;;14.50;99.90;;;;;;5038457;28;20184;-82
2021/10/15 09:51:21;;;;;;;4.25;2.40;;;14.60;99.90;;;;;;5055461;28;20201;-84
2021/10/15 09:54:07;;;;;;;6.70;2.40;;;14.60;99.90;;;;;;5056042;28;20174;-84
2021/10/15 09:57:02;;;;;;;3.30;2.45;;;14.60;99.90;;;;;;5073155;28;20589;-85
2021/10/15 09:59:43;;;;;;;4.57;2.55;;;14.40;99.90;;;;;;5055540;28;20223;-83
2021/10/15 10:02:08;;;;;;;3.30;2.22;;;14.40;99.90;;;;;;5060386;28;20231;-82
2021/10/15 10:04:34;;;;;;;3.93;2.10;;;14.30;99.90;;;;;;5054433;28;20181;-82
2021/10/15 10:07:00;;;;;;;3.77;2.00;;;14.30;99.90;;;;;;5055486;28;20221;-83
2021/10/15 10:09:25;;;;;;;2.97;2.07;;;14.40;99.90;;;;;;5058057;28;20223;-84
2021/10/15 10:11:52;;;;;;;3.53;2.40;;;14.40;99.90;;;;;;5040087;28;20227;-84
2021/10/15 10:14:18;;;;;;;3.30;2.30;;;14.30;99.90;;;;;;5057719;28;20176;-83
2021/10/15 10:16:45;;;;;;;2.90;2.45;;;14.30;99.90;;;;;;5056630;28;20185;-83
2021/10/15 10:19:11;;;;;;;3.67;2.40;;;14.20;99.90;;;;;;5059072;28;20164;-83
2021/10/15 10:21:38;;;;;;;4.05;3.13;;;14.20;99.90;;;;;;5057741;28;20265;-84
2021/10/15 10:24:21;;;;;;;4.60;2.50;;;14.20;99.90;;;;;;5055335;28;20172;-83
2021/10/15 10:26:52;;;;;;;3.42;2.40;;;14.20;99.90;;;;;;5039292;28;20202;-84
2021/10/15 10:29:19;;;;;;;2.92;2.70;;;14.20;99.90;;;;;;5055663;28;20173;-84
2021/10/15 10:31:45;;;;;;;4.53;2.75;;;14.20;99.90;;;;;;5055866;28;20177;-84
2021/10/15 10:34:14;;;;;;;3.13;2.38;;;14.30;99.90;;;;;;5039748;28;20245;-84
2021/10/15 10:36:41;;;;;;;2.67;2.20;;;14.30;99.90;;;;;;5056140;28;20215;-83
2021/10/15 10:39:30;;;;;;;4.30;2.42;;;14.30;99.90;;;;;;5056131;28;20215;-83
2021/10/15 10:42:05;;;;;;;3.70;2.40;;;14.30;99.90;;;;;;5047731;28;20751;-84
2021/10/15 10:44:49;;;;;;;4.00;2.80;;;14.20;99.90;;;;;;5072140;28;20297;-84
2021/10/15 10:47:15;;;;;;;3.20;2.15;;;14.10;99.90;;;;;;5056958;28;20204;-84
2021/10/15 10:50:05;;;;;;;2.80;2.10;;;14.10;99.90;;;;;;5055449;28;20201;-83
2021/10/15 10:53:01;;;;;;;7.35;3.00;;;14.00;99.90;;;;;;5074629;28;20202;-83
2021/10/15 10:55:46;;;;;;;2.65;2.45;;;14.00;99.90;;;;;;5045785;28;20685;-83
2021/10/15 10:58:32;;;;;;;2.75;1.85;;;13.90;99.90;;;;;;5059935;28;20619;-82
2021/10/15 11:01:21;;;;;;;6.50;2.13;;;13.80;99.90;;;;;;5061501;28;20196;-83
2021/10/15 11:03:47;;;;;;;9.88;3.45;;;13.80;99.90;;;;;;5059265;28;20184;-83
2021/10/15 11:06:13;;;;;;;3.95;2.15;;;13.80;99.90;;;;;;5044258;28;20200;-82
2021/10/15 11:08:46;;;;;;;4.53;3.00;;;13.60;99.90;;;;;;5061372;28;20196;-83
2021/10/15 11:11:24;;;;;;;4.70;2.30;;;13.60;99.90;;;;;;5061285;28;20200;-84
2021/10/15 11:13:50;;;;;;;3.78;2.20;;;13.50;99.90;;;;;;5060399;28;20176;-83
2021/10/15 11:16:25;;;;;;;3.23;2.50;;;13.40;99.90;;;;;;5061957;28;20212;-84
2021/10/15 11:18:57;;;;;;;2.85;2.50;;;13.40;99.90;;;;;;5062133;28;20499;-84
2021/10/15 11:21:23;;;;;;;5.65;3.00;;;13.50;99.90;;;;;;5060166;28;20168;-83
2021/10/15 11:23:53;;;;;;;3.33;3.03;;;13.40;99.90;;;;;;5061653;28;20513;-84
2021/10/15 11:26:31;;;;;;;4.30;2.92;;;13.40;99.90;;;;;;5060371;28;20215;-84
2021/10/15 11:28:57;;;;;;;4.55;2.70;;;13.40;99.90;;;;;;5059845;28;20535;-82
2021/10/15 11:31:25;;;;;;;8.40;3.43;;;13.40;99.90;;;;;;5060441;28;20207;-84
2021/10/15 11:33:50;;;;;;;3.50;3.05;;;13.50;99.90;;;;;;5059480;28;20176;-83
2021/10/15 11:36:27;;;;;;;3.70;3.00;;;13.50;99.90;;;;;;5061133;28;20671;-83
2021/10/15 11:38:59;;;;;;;4.55;3.08;;;13.50;99.90;;;;;;5061024;28;20165;-84
2021/10/15 11:41:25;;;;;;;3.28;2.92;;;13.50;99.90;;;;;;5060417;28;20177;-83
2021/10/15 11:43:56;;;;;;;5.33;3.00;;;13.40;99.90;;;;;;5060810;28;20602;-84
2021/10/15 11:46:25;;;;;;;8.75;3.90;;;13.30;99.90;;;;;;5060666;28;20215;-85
2021/10/15 11:48:52;;;;;;;6.40;4.60;;;13.30;99.90;;;;;;5063311;28;20180;-85
2021/10/15 11:51:26;;;;;;;2.70;2.50;;;13.10;99.90;;;;;;5061746;28;20704;-85
2021/10/15 11:54:03;;;;;;;5.13;2.75;;;13.00;99.90;;;;;;5060622;28;20200;-85
2021/10/15 11:56:32;;;;;;;3.45;2.72;;;12.90;99.90;;;;;;5060605;28;20184;-85
2021/10/15 11:58:59;;;;;;;4.07;3.00;;;12.90;99.90;;;;;;5059012;28;20177;-85
2021/10/15 12:01:27;;;;;;;5.60;2.80;;;12.80;99.90;;;;;;5059786;28;20707;-84
2021/10/15 12:03:59;;;;;;;5.53;3.67;;;12.70;99.90;;;;;;5061402;28;20173;-85
2021/10/15 12:06:45;;;;;;;6.68;2.67;;;12.70;99.90;;;;;;5059628;28;20272;-85
2021/10/15 12:09:10;;;;;;;3.78;2.60;;;12.70;99.90;;;;;;5058577;28;20200;-85
2021/10/15 12:11:42;;;;;;;2.30;2.10;;;12.60;99.90;;;;;;5059288;28;20197;-85
2021/10/15 12:14:15;;;;;;;2.97;2.33;;;12.60;99.90;;;;;;5067143;28;20188;-85
2021/10/15 12:16:49;;;;;;;2.80;1.88;;;12.60;99.90;;;;;;5062341;28;20185;-85
2021/10/15 12:19:22;;;;;;;3.13;2.33;;;12.60;99.90;;;;;;5062100;28;20218;-85
2021/10/15 12:21:51;;;;;;;2.95;1.70;;;12.60;99.90;;;;;;5061318;28;20172;-85
2021/10/15 12:24:31;;;;;;;2.67;2.22;;;12.70;99.90;;;;;;5062559;28;20191;-85
2021/10/15 12:27:12;;;;;;;2.00;1.60;;;12.70;99.90;;;;;;5060002;28;20215;-84
2021/10/15 12:29:41;;;;;;;2.25;1.83;;;12.70;99.90;;;;;;5059783;28;20196;-86
2021/10/15 12:32:12;;;;;;;1.75;1.35;;;12.80;99.90;;;;;;5077024;28;20168;-86
2021/10/15 12:35:04;;;;;;;5.13;1.63;;;12.80;99.90;;;;;;5061171;28;20163;-84
2021/10/15 12:37:43;;;;;;;3.72;1.50;;;12.80;99.90;;;;;;5060267;28;20192;-83
2021/10/15 12:40:24;;;;;;;2.22;1.50;;;12.70;99.90;;;;;;5059535;28;20173;-83
2021/10/15 12:43:03;;;;;;;1.10;1.00;;;12.70;99.90;;;;;;5064265;28;20183;-83
2021/10/15 12:45:37;;;;;;;1.55;1.40;;;12.80;99.90;;;;;;5060258;28;20164;-84
2021/10/15 12:48:21;;;;;;;1.88;1.00;;;12.80;99.90;;;;;;5059497;28;20299;-84
2021/10/15 12:51:02;;;;;;;3.30;1.77;;;12.70;99.90;;;;;;5044022;28;20690;-84
2021/10/15 12:53:35;;;;;;;2.05;1.15;;;12.70;99.90;;;;;;5058913;28;20236;-84
2021/10/15 12:56:02;;;;;;;2.55;1.50;;;12.80;99.90;;;;;;5063813;28;20177;-84
2021/10/15 12:58:29;;;;;;;2.83;1.65;;;12.70;99.90;;;;;;5064689;28;20467;-84
2021/10/15 13:00:58;;;;;;;2.70;1.30;;;12.70;99.90;;;;;;5077393;28;20176;-85
2021/10/15 13:03:24;;;;;;;2.28;1.67;;;12.80;99.90;;;;;;5061652;28;20683;-85